sensor_id;sensor_type;location;lat;lon;timestamp;pressure;altitude;pressure_sealevel;temperature;humidity
73674;BME280;61975;48.660;10.164;2023-11-19T00:01:07;95600.72;;;6.82;100.00
73674;BME280;61975;48.660;10.164;2023-11-19T00:03:33;95588.19;;;6.85;100.00
73674;BME280;61975;48.660;10.164;2023-11-19T00:05:59;95580.31;;;6.87;100.00
73674;BME280;61975;48.660;10.164;2023-11-19T00:08:24;95576.69;;;6.83;100.00
73674;BME280;61975;48.660;10.164;2023-11-19T00:10:50;95571.72;;;6.73;100.00
73674;BME280;61975;48.660;10.164;2023-11-19T00:13:16;95552.66;;;6.83;100.00
73674;BME280;61975;48.660;10.164;2023-11-19T00:15:41;95548.81;;;6.88;100.00
73674;BME280;61975;48.660;10.164;2023-11-19T00:18:07;95537.84;;;6.91;100.00
73674;BME280;61975;48.660;10.164;2023-11-19T00:20:32;95539.81;;;6.91;100.00
73674;BME280;61975;48.660;10.164;2023-11-19T00:22:57;95529.13;;;6.89;100.00
73674;BME280;61975;48.660;10.164;2023-11-19T00:25:23;95531.88;;;6.89;100.00
73674;BME280;61975;48.660;10.164;2023-11-19T00:27:48;95534.44;;;6.79;100.00
73674;BME280;61975;48.660;10.164;2023-11-19T00:30:14;95542.16;;;6.89;100.00
73674;BME280;61975;48.660;10.164;2023-11-19T00:32:40;95543.22;;;6.84;100.00
73674;BME280;61975;48.660;10.164;2023-11-19T00:35:06;95533.06;;;6.88;100.00
73674;BME280;61975;48.660;10.164;2023-11-19T00:37:32;95533.88;;;6.89;100.00
73674;BME280;61975;48.660;10.164;2023-11-19T00:39:57;95527.19;;;6.90;100.00
73674;BME280;61975;48.660;10.164;2023-11-19T00:42:23;95537.75;;;6.88;100.00
73674;BME280;61975;48.660;10.164;2023-11-19T00:44:50;95535.16;;;6.95;100.00
73674;BME280;61975;48.660;10.164;2023-11-19T00:47:15;95534.00;;;6.96;100.00
73674;BME280;61975;48.660;10.164;2023-11-19T00:49:40;95524.88;;;6.92;100.00
73674;BME280;61975;48.660;10.164;2023-11-19T00:52:06;95520.28;;;6.99;100.00
73674;BME280;61975;48.660;10.164;2023-11-19T00:54:32;95516.72;;;6.99;100.00
73674;BME280;61975;48.660;10.164;2023-11-19T00:56:57;95525.06;;;7.02;100.00
73674;BME280;61975;48.660;10.164;2023-11-19T00:59:22;95521.91;;;7.00;100.00
73674;BME280;61975;48.660;10.164;2023-11-19T01:01:48;95523.84;;;7.00;100.00
73674;BME280;61975;48.660;10.164;2023-11-19T01:04:14;95527.81;;;7.02;100.00
73674;BME280;61975;48.660;10.164;2023-11-19T01:06:39;95521.59;;;7.05;100.00
73674;BME280;61975;48.660;10.164;2023-11-19T01:09:05;95524.44;;;7.09;100.00
73674;BME280;61975;48.660;10.164;2023-11-19T01:11:31;95517.75;;;7.10;100.00
73674;BME280;61975;48.660;10.164;2023-11-19T01:13:56;95513.97;;;6.99;100.00
73674;BME280;61975;48.660;10.164;2023-11-19T01:16:22;95513.31;;;7.05;100.00
73674;BME280;61975;48.660;10.164;2023-11-19T01:18:48;95501.75;;;7.00;100.00
73674;BME280;61975;48.660;10.164;2023-11-19T01:21:14;95502.63;;;7.04;100.00
73674;BME280;61975;48.660;10.164;2023-11-19T01:23:42;95498.88;;;6.93;100.00
73674;BME280;61975;48.660;10.164;2023-11-19T01:26:11;95489.63;;;7.04;100.00
73674;BME280;61975;48.660;10.164;2023-11-19T01:28:38;95493.13;;;7.01;100.00
73674;BME280;61975;48.660;10.164;2023-11-19T01:31:05;95492.31;;;7.01;100.00
73674;BME280;61975;48.660;10.164;2023-11-19T01:33:30;95490.38;;;7.01;100.00
73674;BME280;61975;48.660;10.164;2023-11-19T01:35:56;95476.47;;;6.98;100.00
73674;BME280;61975;48.660;10.164;2023-11-19T01:38:24;95483.53;;;6.95;100.00
73674;BME280;61975;48.660;10.164;2023-11-19T01:40:49;95487.25;;;7.03;100.00
73674;BME280;61975;48.660;10.164;2023-11-19T01:43:31;95477.06;;;7.07;100.00
73674;BME280;61975;48.660;10.164;2023-11-19T01:45:58;95476.69;;;7.08;100.00
73674;BME280;61975;48.660;10.164;2023-11-19T01:48:23;95461.00;;;7.12;100.00
73674;BME280;61975;48.660;10.164;2023-11-19T01:50:49;95468.47;;;7.12;100.00
73674;BME280;61975;48.660;10.164;2023-11-19T01:53:15;95468.91;;;7.14;100.00
73674;BME280;61975;48.660;10.164;2023-11-19T01:55:42;95466.59;;;7.16;100.00
73674;BME280;61975;48.660;10.164;2023-11-19T01:58:07;95457.16;;;7.17;100.00
73674;BME280;61975;48.660;10.164;2023-11-19T02:00:32;95464.25;;;7.18;100.00
73674;BME280;61975;48.660;10.164;2023-11-19T02:02:58;95461.94;;;7.20;100.00
73674;BME280;61975;48.660;10.164;2023-11-19T02:05:24;95454.44;;;7.20;100.00
73674;BME280;61975;48.660;10.164;2023-11-19T02:07:50;95452.50;;;7.21;100.00
73674;BME280;61975;48.660;10.164;2023-11-19T02:10:16;95447.81;;;7.25;100.00
73674;BME280;61975;48.660;10.164;2023-11-19T02:12:44;95447.69;;;7.18;100.00
73674;BME280;61975;48.660;10.164;2023-11-19T02:15:11;95449.78;;;7.24;100.00
73674;BME280;61975;48.660;10.164;2023-11-19T02:17:36;95448.44;;;7.15;100.00
73674;BME280;61975;48.660;10.164;2023-11-19T02:20:05;95442.31;;;7.25;100.00
73674;BME280;61975;48.660;10.164;2023-11-19T02:22:36;95438.38;;;7.26;100.00
73674;BME280;61975;48.660;10.164;2023-11-19T02:25:05;95442.31;;;7.25;100.00
73674;BME280;61975;48.660;10.164;2023-11-19T02:30:22;95441.25;;;7.33;100.00
73674;BME280;61975;48.660;10.164;2023-11-19T02:32:55;95445.19;;;7.32;100.00
73674;BME280;61975;48.660;10.164;2023-11-19T02:35:26;95436.19;;;7.35;100.00
73674;BME280;61975;48.660;10.164;2023-11-19T02:37:53;95432.59;;;7.34;100.00
73674;BME280;61975;48.660;10.164;2023-11-19T02:40:19;95434.22;;;7.35;100.00
73674;BME280;61975;48.660;10.164;2023-11-19T02:42:44;95429.47;;;7.36;100.00
73674;BME280;61975;48.660;10.164;2023-11-19T02:45:10;95426.34;;;7.37;100.00
73674;BME280;61975;48.660;10.164;2023-11-19T02:47:40;95433.91;;;7.40;100.00
73674;BME280;61975;48.660;10.164;2023-11-19T02:50:08;95431.09;;;7.37;100.00
73674;BME280;61975;48.660;10.164;2023-11-19T02:52:42;95427.97;;;7.38;100.00
73674;BME280;61975;48.660;10.164;2023-11-19T02:55:09;95427.56;;;7.40;100.00
73674;BME280;61975;48.660;10.164;2023-11-19T02:57:35;95427.56;;;7.40;100.00
73674;BME280;61975;48.660;10.164;2023-11-19T03:00:00;95426.44;;;7.41;100.00
73674;BME280;61975;48.660;10.164;2023-11-19T03:02:26;95416.97;;;7.42;100.00
73674;BME280;61975;48.660;10.164;2023-11-19T03:04:59;95412.66;;;7.44;100.00
73674;BME280;61975;48.660;10.164;2023-11-19T03:07:25;95407.47;;;7.39;100.00
73674;BME280;61975;48.660;10.164;2023-11-19T03:09:50;95407.97;;;7.45;100.00
73674;BME280;61975;48.660;10.164;2023-11-19T03:12:15;95413.88;;;7.47;100.00
73674;BME280;61975;48.660;10.164;2023-11-19T03:14:41;95419.84;;;7.49;100.00
73674;BME280;61975;48.660;10.164;2023-11-19T03:17:07;95426.19;;;7.49;100.00
73674;BME280;61975;48.660;10.164;2023-11-19T03:19:34;95422.25;;;7.50;100.00
73674;BME280;61975;48.660;10.164;2023-11-19T03:22:01;95425.38;;;7.49;100.00
73674;BME280;61975;48.660;10.164;2023-11-19T03:24:27;95430.16;;;7.52;100.00
73674;BME280;61975;48.660;10.164;2023-11-19T03:26:52;95425.38;;;7.49;100.00
73674;BME280;61975;48.660;10.164;2023-11-19T03:29:17;95425.44;;;7.52;100.00
73674;BME280;61975;48.660;10.164;2023-11-19T03:31:43;95424.66;;;7.52;100.00
73674;BME280;61975;48.660;10.164;2023-11-19T03:34:08;95431.38;;;7.54;100.00
73674;BME280;61975;48.660;10.164;2023-11-19T03:36:34;95433.41;;;7.57;100.00
73674;BME280;61975;48.660;10.164;2023-11-19T03:38:59;95430.28;;;7.59;100.00
73674;BME280;61975;48.660;10.164;2023-11-19T03:41:24;95434.63;;;7.60;100.00
73674;BME280;61975;48.660;10.164;2023-11-19T03:43:50;95447.72;;;7.63;100.00
73674;BME280;61975;48.660;10.164;2023-11-19T03:46:19;95444.59;;;7.64;100.00
73674;BME280;61975;48.660;10.164;2023-11-19T03:48:46;95431.59;;;7.65;100.00
73674;BME280;61975;48.660;10.164;2023-11-19T03:51:12;95444.66;;;7.68;100.00
73674;BME280;61975;48.660;10.164;2023-11-19T03:53:44;95439.91;;;7.68;100.00
73674;BME280;61975;48.660;10.164;2023-11-19T03:56:11;95443.88;;;7.71;100.00
73674;BME280;61975;48.660;10.164;2023-11-19T03:58:37;95439.19;;;7.71;100.00
73674;BME280;61975;48.660;10.164;2023-11-19T04:01:10;95442.00;;;7.75;100.00
73674;BME280;61975;48.660;10.164;2023-11-19T04:03:36;95415.53;;;7.74;100.00
73674;BME280;61975;48.660;10.164;2023-11-19T04:06:01;95421.91;;;7.78;100.00
73674;BME280;61975;48.660;10.164;2023-11-19T04:08:27;95400.97;;;7.77;100.00
73674;BME280;61975;48.660;10.164;2023-11-19T04:10:52;95423.53;;;7.79;100.00
73674;BME280;61975;48.660;10.164;2023-11-19T04:13:18;95413.25;;;7.79;100.00
73674;BME280;61975;48.660;10.164;2023-11-19T04:15:45;95411.66;;;7.78;100.00
73674;BME280;61975;48.660;10.164;2023-11-19T04:18:10;95421.06;;;7.74;100.00
73674;BME280;61975;48.660;10.164;2023-11-19T04:20:35;95413.22;;;7.76;100.00
73674;BME280;61975;48.660;10.164;2023-11-19T04:23:01;95406.94;;;7.79;100.00
73674;BME280;61975;48.660;10.164;2023-11-19T04:25:27;95406.09;;;7.75;100.00
73674;BME280;61975;48.660;10.164;2023-11-19T04:27:52;95409.25;;;7.77;100.00
73674;BME280;61975;48.660;10.164;2023-11-19T04:30:18;95397.47;;;7.80;100.00
73674;BME280;61975;48.660;10.164;2023-11-19T04:32:44;95403.38;;;7.78;100.00
73674;BME280;61975;48.660;10.164;2023-11-19T04:35:09;95401.41;;;7.79;100.00
73674;BME280;61975;48.660;10.164;2023-11-19T04:37:35;95391.94;;;7.80;100.00
73674;BME280;61975;48.660;10.164;2023-11-19T04:40:01;95395.94;;;7.82;100.00
73674;BME280;61975;48.660;10.164;2023-11-19T04:42:26;95406.59;;;7.84;100.00
73674;BME280;61975;48.660;10.164;2023-11-19T04:44:52;95395.19;;;7.85;100.00
73674;BME280;61975;48.660;10.164;2023-11-19T04:47:17;95402.66;;;7.85;100.00
73674;BME280;61975;48.660;10.164;2023-11-19T04:49:43;95405.88;;;7.87;100.00
73674;BME280;61975;48.660;10.164;2023-11-19T04:52:08;95400.78;;;7.89;100.00
73674;BME280;61975;48.660;10.164;2023-11-19T04:54:34;95406.31;;;7.89;100.00
73674;BME280;61975;48.660;10.164;2023-11-19T04:56:59;95408.72;;;7.90;100.00
73674;BME280;61975;48.660;10.164;2023-11-19T04:59:25;95407.91;;;7.90;100.00
73674;BME280;61975;48.660;10.164;2023-11-19T05:01:50;95412.25;;;7.91;100.00
73674;BME280;61975;48.660;10.164;2023-11-19T05:04:16;95411.09;;;7.92;100.00
73674;BME280;61975;48.660;10.164;2023-11-19T05:06:41;95409.56;;;7.94;100.00
73674;BME280;61975;48.660;10.164;2023-11-19T05:09:07;95421.38;;;7.95;100.00
73674;BME280;61975;48.660;10.164;2023-11-19T05:11:33;95408.34;;;7.92;100.00
73674;BME280;61975;48.660;10.164;2023-11-19T05:13:59;95409.19;;;7.96;100.00
73674;BME280;61975;48.660;10.164;2023-11-19T05:16:25;95408.00;;;7.97;100.00
73674;BME280;61975;48.660;10.164;2023-11-19T05:18:50;95407.25;;;8.00;100.00
73674;BME280;61975;48.660;10.164;2023-11-19T05:21:16;95406.09;;;8.01;100.00
73674;BME280;61975;48.660;10.164;2023-11-19T05:23:42;95410.06;;;8.03;100.00
73674;BME280;61975;48.660;10.164;2023-11-19T05:26:08;95402.09;;;7.98;100.00
73674;BME280;61975;48.660;10.164;2023-11-19T05:28:37;95406.94;;;8.05;100.00
73674;BME280;61975;48.660;10.164;2023-11-19T05:31:02;95408.53;;;8.06;100.00
73674;BME280;61975;48.660;10.164;2023-11-19T05:33:28;95411.31;;;8.06;100.00
73674;BME280;61975;48.660;10.164;2023-11-19T05:35:53;95406.19;;;8.08;100.00
73674;BME280;61975;48.660;10.164;2023-11-19T05:38:18;95410.50;;;8.05;100.00
73674;BME280;61975;48.660;10.164;2023-11-19T05:40:44;95415.66;;;8.07;100.00
73674;BME280;61975;48.660;10.164;2023-11-19T05:43:09;95403.41;;;8.08;100.00
73674;BME280;61975;48.660;10.164;2023-11-19T05:45:35;95398.25;;;8.06;100.00
73674;BME280;61975;48.660;10.164;2023-11-19T05:48:01;95399.38;;;8.02;100.00
73674;BME280;61975;48.660;10.164;2023-11-19T05:50:28;95393.56;;;8.10;100.00
73674;BME280;61975;48.660;10.164;2023-11-19T05:52:53;95408.66;;;8.13;100.00
73674;BME280;61975;48.660;10.164;2023-11-19T05:55:19;95409.06;;;8.15;100.00
73674;BME280;61975;48.660;10.164;2023-11-19T05:57:44;95416.94;;;8.13;100.00
73674;BME280;61975;48.660;10.164;2023-11-19T06:00:10;95417.34;;;8.15;100.00
73674;BME280;61975;48.660;10.164;2023-11-19T06:02:35;95416.94;;;8.13;100.00
73674;BME280;61975;48.660;10.164;2023-11-19T06:05:03;95419.00;;;8.19;100.00
73674;BME280;61975;48.660;10.164;2023-11-19T06:07:31;95426.91;;;8.21;100.00
73674;BME280;61975;48.660;10.164;2023-11-19T06:09:56;95414.66;;;8.18;100.00
73674;BME280;61975;48.660;10.164;2023-11-19T06:12:21;95420.25;;;8.22;100.00
73674;BME280;61975;48.660;10.164;2023-11-19T06:14:47;95424.16;;;8.21;100.00
73674;BME280;61975;48.660;10.164;2023-11-19T06:17:12;95423.00;;;8.22;100.00
73674;BME280;61975;48.660;10.164;2023-11-19T06:19:37;95417.16;;;8.27;100.00
73674;BME280;61975;48.660;10.164;2023-11-19T06:22:03;95423.09;;;8.29;100.00
73674;BME280;61975;48.660;10.164;2023-11-19T06:24:29;95426.31;;;8.31;100.00
73674;BME280;61975;48.660;10.164;2023-11-19T06:26:54;95423.53;;;8.31;100.00
73674;BME280;61975;48.660;10.164;2023-11-19T06:29:19;95425.13;;;8.32;100.00
73674;BME280;61975;48.660;10.164;2023-11-19T06:31:45;95434.63;;;8.34;100.00
73674;BME280;61975;48.660;10.164;2023-11-19T06:34:11;95431.13;;;8.37;100.00
73674;BME280;61975;48.660;10.164;2023-11-19T06:36:36;95420.03;;;8.34;100.00
73674;BME280;61975;48.660;10.164;2023-11-19T06:39:01;95422.00;;;8.33;100.00
73674;BME280;61975;48.660;10.164;2023-11-19T06:41:27;95417.63;;;8.32;100.00
73674;BME280;61975;48.660;10.164;2023-11-19T06:43:54;95421.16;;;8.29;100.00
73674;BME280;61975;48.660;10.164;2023-11-19T06:46:19;95413.69;;;8.33;100.00
73674;BME280;61975;48.660;10.164;2023-11-19T06:48:45;95419.69;;;8.39;100.00
73674;BME280;61975;48.660;10.164;2023-11-19T06:51:11;95412.59;;;8.41;100.00
73674;BME280;61975;48.660;10.164;2023-11-19T06:53:37;95420.53;;;8.43;100.00
73674;BME280;61975;48.660;10.164;2023-11-19T06:56:03;95416.66;;;8.48;100.00
73674;BME280;61975;48.660;10.164;2023-11-19T06:58:32;95419.03;;;8.49;100.00
73674;BME280;61975;48.660;10.164;2023-11-19T07:00:57;95425.38;;;8.50;100.00
73674;BME280;61975;48.660;10.164;2023-11-19T07:03:23;95431.69;;;8.50;100.00
73674;BME280;61975;48.660;10.164;2023-11-19T07:05:48;95430.19;;;8.56;100.00
73674;BME280;61975;48.660;10.164;2023-11-19T07:08:13;95435.66;;;8.52;100.00
73674;BME280;61975;48.660;10.164;2023-11-19T07:10:39;95425.50;;;8.60;100.00
73674;BME280;61975;48.660;10.164;2023-11-19T07:13:04;95434.66;;;8.64;100.00
73674;BME280;61975;48.660;10.164;2023-11-19T07:15:31;95435.03;;;8.63;100.00
73674;BME280;61975;48.660;10.164;2023-11-19T07:17:57;95433.50;;;8.65;100.00
73674;BME280;61975;48.660;10.164;2023-11-19T07:20:24;95441.44;;;8.70;100.00
73674;BME280;61975;48.660;10.164;2023-11-19T07:22:53;95440.69;;;8.73;100.00
73674;BME280;61975;48.660;10.164;2023-11-19T07:25:20;95442.28;;;8.74;100.00
73674;BME280;61975;48.660;10.164;2023-11-19T07:27:45;95428.44;;;8.74;100.00
73674;BME280;61975;48.660;10.164;2023-11-19T07:30:12;95438.03;;;8.80;100.00
73674;BME280;61975;48.660;10.164;2023-11-19T07:32:37;95445.56;;;8.83;100.00
73674;BME280;61975;48.660;10.164;2023-11-19T07:35:04;95444.03;;;8.86;100.00
73674;BME280;61975;48.660;10.164;2023-11-19T07:37:30;95454.25;;;8.82;100.00
73674;BME280;61975;48.660;10.164;2023-11-19T07:39:56;95458.69;;;8.90;100.00
73674;BME280;61975;48.660;10.164;2023-11-19T07:42:21;95465.44;;;8.92;100.00
73674;BME280;61975;48.660;10.164;2023-11-19T07:44:48;95463.84;;;8.91;100.00
73674;BME280;61975;48.660;10.164;2023-11-19T07:47:13;95463.84;;;8.91;100.00
73674;BME280;61975;48.660;10.164;2023-11-19T07:49:38;95464.66;;;8.92;100.00
73674;BME280;61975;48.660;10.164;2023-11-19T07:52:04;95477.69;;;8.91;100.00
73674;BME280;61975;48.660;10.164;2023-11-19T07:54:30;95476.19;;;8.97;100.00
73674;BME280;61975;48.660;10.164;2023-11-19T07:56:55;95475.06;;;9.02;100.00
73674;BME280;61975;48.660;10.164;2023-11-19T07:59:21;95485.41;;;9.05;100.00
73674;BME280;61975;48.660;10.164;2023-11-19T08:01:46;95485.00;;;9.06;100.00
73674;BME280;61975;48.660;10.164;2023-11-19T08:04:11;95480.63;;;9.05;100.00
73674;BME280;61975;48.660;10.164;2023-11-19T08:06:37;95475.94;;;9.09;100.00
73674;BME280;61975;48.660;10.164;2023-11-19T08:09:02;95475.09;;;9.05;100.00
73674;BME280;61975;48.660;10.164;2023-11-19T08:11:27;95468.88;;;9.12;100.00
73674;BME280;61975;48.660;10.164;2023-11-19T08:13:53;95467.25;;;9.11;100.00
73674;BME280;61975;48.660;10.164;2023-11-19T08:16:18;95473.53;;;9.08;100.00
73674;BME280;61975;48.660;10.164;2023-11-19T08:18:43;95470.44;;;9.13;100.00
73674;BME280;61975;48.660;10.164;2023-11-19T08:21:09;95475.25;;;9.16;100.00
73674;BME280;61975;48.660;10.164;2023-11-19T08:23:36;95471.66;;;9.15;100.00
73674;BME280;61975;48.660;10.164;2023-11-19T08:26:01;95465.00;;;9.20;100.00
73674;BME280;61975;48.660;10.164;2023-11-19T08:28:26;95480.84;;;9.23;100.00
73674;BME280;61975;48.660;10.164;2023-11-19T08:30:52;95481.63;;;9.23;100.00
73674;BME280;61975;48.660;10.164;2023-11-19T08:33:18;95476.09;;;9.23;100.00
73674;BME280;61975;48.660;10.164;2023-11-19T08:35:43;95489.56;;;9.25;100.00
73674;BME280;61975;48.660;10.164;2023-11-19T08:38:09;95477.78;;;9.31;100.00
73674;BME280;61975;48.660;10.164;2023-11-19T08:40:34;95477.81;;;9.35;100.00
73674;BME280;61975;48.660;10.164;2023-11-19T08:43:00;95481.78;;;9.37;100.00
73674;BME280;61975;48.660;10.164;2023-11-19T08:45:25;95473.91;;;9.39;100.00
73674;BME280;61975;48.660;10.164;2023-11-19T08:47:51;95477.13;;;9.41;100.00
73674;BME280;61975;48.660;10.164;2023-11-19T08:50:16;95479.88;;;9.41;100.00
73674;BME280;61975;48.660;10.164;2023-11-19T08:52:41;95478.34;;;9.47;100.00
73674;BME280;61975;48.660;10.164;2023-11-19T08:55:07;95469.28;;;9.50;100.00
73674;BME280;61975;48.660;10.164;2023-11-19T08:57:34;95457.47;;;9.57;100.00
73674;BME280;61975;48.660;10.164;2023-11-19T09:00:00;95466.25;;;9.62;100.00
73674;BME280;61975;48.660;10.164;2023-11-19T09:02:25;95470.66;;;9.70;100.00
73674;BME280;61975;48.660;10.164;2023-11-19T09:04:51;95462.78;;;9.76;100.00
73674;BME280;61975;48.660;10.164;2023-11-19T09:07:16;95458.13;;;9.83;100.00
73674;BME280;61975;48.660;10.164;2023-11-19T09:09:42;95453.34;;;9.84;100.00
73674;BME280;61975;48.660;10.164;2023-11-19T09:12:07;95464.13;;;9.92;100.00
73674;BME280;61975;48.660;10.164;2023-11-19T09:14:32;95462.22;;;10.00;100.00
73674;BME280;61975;48.660;10.164;2023-11-19T09:16:58;95461.84;;;10.01;100.00
73674;BME280;61975;48.660;10.164;2023-11-19T09:19:24;95465.44;;;10.05;100.00
73674;BME280;61975;48.660;10.164;2023-11-19T09:21:49;95475.78;;;10.08;100.00
73674;BME280;61975;48.660;10.164;2023-11-19T09:24:15;95472.66;;;10.13;100.00
73674;BME280;61975;48.660;10.164;2023-11-19T09:26:41;95469.91;;;10.17;100.00
73674;BME280;61975;48.660;10.164;2023-11-19T09:29:09;95480.28;;;10.27;100.00
73674;BME280;61975;48.660;10.164;2023-11-19T09:31:37;95475.56;;;10.34;100.00
73674;BME280;61975;48.660;10.164;2023-11-19T09:34:03;95493.06;;;10.38;100.00
73674;BME280;61975;48.660;10.164;2023-11-19T09:36:28;95490.34;;;10.49;100.00
73674;BME280;61975;48.660;10.164;2023-11-19T09:38:53;95490.00;;;10.54;100.00
73674;BME280;61975;48.660;10.164;2023-11-19T09:41:19;95482.88;;;10.60;100.00
73674;BME280;61975;48.660;10.164;2023-11-19T09:43:44;95487.31;;;10.68;100.00
73674;BME280;61975;48.660;10.164;2023-11-19T09:46:10;95484.97;;;10.73;100.00
73674;BME280;61975;48.660;10.164;2023-11-19T09:48:39;95472.72;;;10.81;100.00
73674;BME280;61975;48.660;10.164;2023-11-19T09:51:08;95472.34;;;10.90;100.00
73674;BME280;61975;48.660;10.164;2023-11-19T09:53:35;95468.00;;;10.92;100.00
73674;BME280;61975;48.660;10.164;2023-11-19T09:56:04;95470.81;;;10.99;100.00
73674;BME280;61975;48.660;10.164;2023-11-19T09:58:32;95475.19;;;11.04;100.00
73674;BME280;61975;48.660;10.164;2023-11-19T10:00:58;95466.44;;;11.02;100.00
73674;BME280;61975;48.660;10.164;2023-11-19T10:03:25;95462.13;;;11.04;100.00
73674;BME280;61975;48.660;10.164;2023-11-19T10:05:52;95465.69;;;11.08;100.00
73674;BME280;61975;48.660;10.164;2023-11-19T10:08:18;95472.88;;;11.16;100.00
73674;BME280;61975;48.660;10.164;2023-11-19T10:10:43;95465.38;;;11.27;100.00
73674;BME280;61975;48.660;10.164;2023-11-19T10:13:09;95464.22;;;11.36;100.00
73674;BME280;61975;48.660;10.164;2023-11-19T10:15:38;95467.41;;;11.41;100.00
73674;BME280;61975;48.660;10.164;2023-11-19T10:18:04;95476.53;;;11.42;100.00
73674;BME280;61975;48.660;10.164;2023-11-19T10:20:38;95473.75;;;11.49;100.00
73674;BME280;61975;48.660;10.164;2023-11-19T10:23:05;95472.22;;;11.51;100.00
73674;BME280;61975;48.660;10.164;2023-11-19T10:25:32;95463.06;;;11.58;100.00
73674;BME280;61975;48.660;10.164;2023-11-19T10:27:58;95458.75;;;11.67;100.00
73674;BME280;61975;48.660;10.164;2023-11-19T10:30:28;95461.94;;;11.73;100.00
73674;BME280;61975;48.660;10.164;2023-11-19T10:33:14;95451.22;;;11.82;100.00
73674;BME280;61975;48.660;10.164;2023-11-19T10:35:51;95451.22;;;11.85;100.00
73674;BME280;61975;48.660;10.164;2023-11-19T10:38:21;95442.91;;;11.89;100.00
73674;BME280;61975;48.660;10.164;2023-11-19T10:40:48;95456.41;;;12.01;100.00
73674;BME280;61975;48.660;10.164;2023-11-19T10:43:13;95447.66;;;12.06;100.00
73674;BME280;61975;48.660;10.164;2023-11-19T10:45:39;95440.13;;;12.06;100.00
73674;BME280;61975;48.660;10.164;2023-11-19T10:48:06;95441.69;;;12.11;100.00
73674;BME280;61975;48.660;10.164;2023-11-19T10:50:36;95438.53;;;12.16;100.00
73674;BME280;61975;48.660;10.164;2023-11-19T10:53:02;95430.19;;;12.23;100.00
73674;BME280;61975;48.660;10.164;2023-11-19T10:55:33;95430.16;;;12.26;100.00
73674;BME280;61975;48.660;10.164;2023-11-19T10:58:07;95430.56;;;12.32;100.00
73674;BME280;61975;48.660;10.164;2023-11-19T11:00:50;95426.16;;;12.45;100.00
73674;BME280;61975;48.660;10.164;2023-11-19T11:03:18;95426.94;;;12.49;100.00
73674;BME280;61975;48.660;10.164;2023-11-19T11:05:46;95418.59;;;12.52;100.00
73674;BME280;61975;48.660;10.164;2023-11-19T11:08:13;95421.75;;;12.54;100.00
73674;BME280;61975;48.660;10.164;2023-11-19T11:10:47;95423.78;;;12.54;100.00
73674;BME280;61975;48.660;10.164;2023-11-19T11:13:14;95419.78;;;12.55;100.00
73674;BME280;61975;48.660;10.164;2023-11-19T11:15:39;95437.28;;;12.59;100.00
73674;BME280;61975;48.660;10.164;2023-11-19T11:18:08;95415.00;;;12.59;100.00
73674;BME280;61975;48.660;10.164;2023-11-19T11:20:34;95426.13;;;12.59;100.00
73674;BME280;61975;48.660;10.164;2023-11-19T11:28:26;95416.59;;;12.53;100.00
73674;BME280;61975;48.660;10.164;2023-11-19T11:31:09;95405.47;;;12.53;100.00
73674;BME280;61975;48.660;10.164;2023-11-19T11:36:22;95444.41;;;12.60;100.00
73674;BME280;61975;48.660;10.164;2023-11-19T11:38:49;95426.53;;;12.61;100.00
73674;BME280;61975;48.660;10.164;2023-11-19T11:41:16;95422.94;;;12.60;100.00
73674;BME280;61975;48.660;10.164;2023-11-19T11:49:08;95422.16;;;12.60;100.00
73674;BME280;61975;48.660;10.164;2023-11-19T11:54:08;95410.63;;;12.54;100.00
73674;BME280;61975;48.660;10.164;2023-11-19T11:56:37;95423.38;;;12.55;100.00
73674;BME280;61975;48.660;10.164;2023-11-19T11:59:03;95421.38;;;12.59;100.00
73674;BME280;61975;48.660;10.164;2023-11-19T12:01:32;95419.78;;;12.62;100.00
73674;BME280;61975;48.660;10.164;2023-11-19T12:03:58;95422.16;;;12.56;100.00
73674;BME280;61975;48.660;10.164;2023-11-19T12:06:23;95418.19;;;12.50;100.00
73674;BME280;61975;48.660;10.164;2023-11-19T12:08:49;95408.66;;;12.48;100.00
73674;BME280;61975;48.660;10.164;2023-11-19T12:11:16;95415.03;;;12.48;100.00
73674;BME280;61975;48.660;10.164;2023-11-19T12:14:07;95408.66;;;12.55;100.00
73674;BME280;61975;48.660;10.164;2023-11-19T12:16:33;95416.97;;;12.62;100.00
73674;BME280;61975;48.660;10.164;2023-11-19T12:19:03;95409.41;;;12.66;100.00
73674;BME280;61975;48.660;10.164;2023-11-19T12:21:32;95403.03;;;12.76;100.00
73674;BME280;61975;48.660;10.164;2023-11-19T12:23:59;95405.38;;;12.88;100.00
73674;BME280;61975;48.660;10.164;2023-11-19T12:26:37;95399.78;;;12.95;100.00
73674;BME280;61975;48.660;10.164;2023-11-19T12:29:03;95403.72;;;13.08;100.00
73674;BME280;61975;48.660;10.164;2023-11-19T12:31:32;95395.75;;;13.10;100.00
73674;BME280;61975;48.660;10.164;2023-11-19T12:33:57;95386.56;;;13.16;100.00
73674;BME280;61975;48.660;10.164;2023-11-19T12:36:22;95381.00;;;13.13;100.00
73674;BME280;61975;48.660;10.164;2023-11-19T12:38:48;95376.25;;;13.10;100.00
73674;BME280;61975;48.660;10.164;2023-11-19T12:41:13;95384.19;;;13.11;100.00
73674;BME280;61975;48.660;10.164;2023-11-19T12:43:42;95389.41;;;13.06;100.00
73674;BME280;61975;48.660;10.164;2023-11-19T12:46:21;95383.88;;;12.99;100.00
73674;BME280;61975;48.660;10.164;2023-11-19T12:48:51;95369.13;;;12.98;100.00
73674;BME280;61975;48.660;10.164;2023-11-19T12:51:16;95380.25;;;13.09;100.00
73674;BME280;61975;48.660;10.164;2023-11-19T12:53:50;95377.44;;;13.09;100.00
73674;BME280;61975;48.660;10.164;2023-11-19T12:56:17;95374.22;;;13.14;100.00
73674;BME280;61975;48.660;10.164;2023-11-19T12:58:43;95372.22;;;13.18;100.00
73674;BME280;61975;48.660;10.164;2023-11-19T13:01:08;95357.38;;;13.35;100.00
73674;BME280;61975;48.660;10.164;2023-11-19T13:03:37;95362.06;;;13.52;98.14